Inverurie, United Kingdom
Current Conditions -  °F | °C
As of 4:20 AM on Thursday 27 Nov 2014 (Local Time) from EGPD Reporting Station
Drizzle Drizzle  
Wind Chill: 43°   Ceiling: 2500
Heat Index: 43°   Visibility: 1.9mi
Dew Point: 41°   Wind: 3mph
Humidity: 93%   Direction: 360°N
Pressure: 29.71"   Gusts: NA
Location:  57.28°N, 2.38°W
Report Text: EGPD 270420Z AUTO 36003KT 3100 -DZ FEW013/// BKN025/// 06/05 Q1006 RERA
Loading
Personal Weather Stations






























Interactive Weather Map New forecast layout! Learn more

10-Day Weather Forecast

Advertisements
Track Severe Weather on mobile